Time;durP1;ratioP1;P1;durP2;ratioP2;P2;SDS_P1;SDS_P2;PMS_P1;PMS_P2;Temp;Humidity;BMP_temperature;BMP_pressure;BME280_temperature;BME280_humidity;BME280_pressure;Samples;Min_cycle;Max_cycle;Signal;HPM_P1;HPM_P2
2023/04/22 00:02:15;;;;;;;11.20;9.60;;;;;;;11.23;66.13;100337.63;4926949;29;20225;-70
2023/04/22 00:04:42;;;;;;;11.63;9.23;;;;;;;11.19;66.05;100333.47;4926603;29;20608;-70
2023/04/22 00:07:11;;;;;;;11.83;9.07;;;;;;;11.16;66.01;100331.03;4925041;29;20214;-70
2023/04/22 00:09:38;;;;;;;10.50;9.10;;;;;;;11.11;66.28;100324.19;4927592;29;20278;-70
2023/04/22 00:12:04;;;;;;;11.67;10.03;;;;;;;11.06;66.15;100315.69;4928416;29;20249;-71
2023/04/22 00:14:31;;;;;;;10.77;9.67;;;;;;;11.05;66.64;100323.81;4927874;29;20696;-71
2023/04/22 00:16:57;;;;;;;11.77;9.37;;;;;;;11.02;66.78;100308.03;4930045;29;20289;-69
2023/04/22 00:19:24;;;;;;;17.23;9.83;;;;;;;11.00;66.77;100317.94;4930177;29;20237;-71
2023/04/22 00:21:50;;;;;;;13.23;9.47;;;;;;;10.96;66.84;100314.63;4927859;29;20237;-70
2023/04/22 00:24:18;;;;;;;10.77;8.90;;;;;;;10.93;66.80;100314.84;4930083;29;20214;-70
2023/04/22 00:26:45;;;;;;;13.80;9.23;;;;;;;10.90;67.23;100312.41;4929001;29;20214;-71
2023/04/22 00:29:11;;;;;;;11.10;9.93;;;;;;;10.86;67.20;100307.41;4928607;29;20210;-69
2023/04/22 00:31:38;;;;;;;10.40;9.37;;;;;;;10.84;67.74;100317.31;4929774;29;20245;-72
2023/04/22 00:34:04;;;;;;;9.57;8.53;;;;;;;10.81;67.63;100309.53;4929977;29;20208;-70
2023/04/22 00:36:31;;;;;;;10.50;9.40;;;;;;;10.78;67.59;100311.44;4929744;29;20582;-71
2023/04/22 00:38:57;;;;;;;9.80;8.70;;;;;;;10.76;67.98;100308.03;4929095;29;20317;-71
2023/04/22 00:41:25;;;;;;;11.23;9.80;;;;;;;10.73;68.10;100310.06;4930256;29;20242;-71
2023/04/22 00:43:53;;;;;;;10.43;9.03;;;;;;;10.69;68.33;100306.75;4928747;29;20700;-71
2023/04/22 00:46:20;;;;;;;10.93;9.23;;;;;;;10.67;68.70;100303.34;4929789;29;20257;-70
2023/04/22 00:48:46;;;;;;;11.53;10.07;;;;;;;10.61;68.62;100292.25;4928227;29;20262;-73
2023/04/22 00:51:13;;;;;;;11.17;10.07;;;;;;;10.55;69.00;100300.69;4930024;28;20210;-71
2023/04/22 00:53:39;;;;;;;11.30;10.00;;;;;;;10.48;69.28;100300.25;4930067;29;20209;-68
2023/04/22 00:56:07;;;;;;;12.00;10.23;;;;;;;10.43;69.46;100300.56;4928475;29;20210;-69
2023/04/22 00:58:35;;;;;;;10.90;9.73;;;;;;;10.39;69.61;100299.03;4929071;29;20799;-71
2023/04/22 01:01:02;;;;;;;17.47;11.03;;;;;;;10.36;69.86;100301.09;4930293;29;20221;-71
2023/04/22 01:03:30;;;;;;;11.40;9.70;;;;;;;10.32;69.96;100303.09;4930279;29;20202;-72
2023/04/22 01:05:57;;;;;;;12.10;9.70;;;;;;;10.30;70.44;100298.84;4929846;29;20213;-71
2023/04/22 01:08:29;;;;;;;11.43;10.27;;;;;;;10.27;70.62;100304.34;4928539;29;20249;-71
2023/04/22 01:10:56;;;;;;;10.73;9.63;;;;;;;10.24;70.75;100302.75;4925539;29;20234;-69
2023/04/22 01:13:22;;;;;;;12.40;10.17;;;;;;;10.22;70.72;100309.13;4929177;29;20225;-71
2023/04/22 01:15:50;;;;;;;12.43;10.27;;;;;;;10.18;70.96;100305.81;4926098;29;20676;-70
2023/04/22 01:18:17;;;;;;;12.20;10.47;;;;;;;10.15;71.17;100306.00;4926554;29;20210;-71
2023/04/22 01:20:44;;;;;;;11.10;10.00;;;;;;;10.12;71.09;100306.22;4928119;29;20237;-71
2023/04/22 01:23:17;;;;;;;11.40;10.30;;;;;;;10.10;71.19;100303.66;4928394;29;20244;-71
2023/04/22 01:25:43;;;;;;;11.70;10.50;;;;;;;10.09;71.61;100299.28;4926769;29;20739;-70
2023/04/22 01:28:10;;;;;;;11.73;10.63;;;;;;;10.08;71.47;100305.56;4931644;29;20217;-71
2023/04/22 01:30:37;;;;;;;11.20;10.00;;;;;;;10.08;71.78;100308.22;4931443;29;20597;-71
2023/04/22 01:33:04;;;;;;;13.90;9.70;;;;;;;10.07;71.76;100303.00;4938674;28;20264;-71
2023/04/22 01:35:35;;;;;;;14.27;10.63;;;;;;;10.06;71.76;100311.94;4933595;29;20205;-72
2023/04/22 01:38:02;;;;;;;11.93;10.67;;;;;;;10.07;71.64;100310.97;4931675;29;20210;-70
2023/04/22 01:40:32;;;;;;;11.73;9.70;;;;;;;10.04;71.80;100300.53;4928913;29;20698;-72
2023/04/22 01:42:59;;;;;;;11.03;9.93;;;;;;;10.03;72.17;100306.84;4927361;29;20237;-71
2023/04/22 01:45:26;;;;;;;11.83;10.73;;;;;;;10.02;71.77;100298.00;4932496;29;20301;-73
2023/04/22 01:47:52;;;;;;;11.67;9.80;;;;;;;10.01;72.31;100309.59;4928016;29;20217;-69
2023/04/22 01:50:19;;;;;;;12.07;10.83;;;;;;;10.00;72.08;100302.56;4932222;29;20214;-70
2023/04/22 01:52:45;;;;;;;14.30;10.73;;;;;;;10.00;71.92;100293.75;4932531;29;20231;-71
2023/04/22 01:55:12;;;;;;;12.43;11.00;;;;;;;9.99;72.54;100295.53;4933130;29;21693;-71
2023/04/22 01:57:40;;;;;;;11.60;10.20;;;;;;;9.97;72.39;100294.78;4931821;29;20209;-70
2023/04/22 02:00:08;;;;;;;11.73;10.00;;;;;;;9.97;72.34;100300.13;4930137;29;20245;-70
2023/04/22 02:02:34;;;;;;;11.70;9.73;;;;;;;9.97;72.38;100301.91;4932144;29;20240;-71
2023/04/22 02:05:01;;;;;;;13.43;9.73;;;;;;;9.94;72.67;100287.00;4928360;29;20216;-71
2023/04/22 02:07:27;;;;;;;11.07;9.97;;;;;;;9.94;72.17;100292.31;4932417;29;20210;-70
2023/04/22 02:09:54;;;;;;;12.50;10.50;;;;;;;9.93;72.05;100295.09;4928608;29;20680;-70
2023/04/22 02:12:20;;;;;;;11.17;10.03;;;;;;;9.90;72.08;100295.28;4929778;29;20233;-70
2023/04/22 02:14:48;;;;;;;12.70;10.07;;;;;;;9.88;72.25;100297.19;4926115;29;20215;-71
2023/04/22 02:17:16;;;;;;;12.17;10.13;;;;;;;9.86;72.49;100299.94;4932245;29;20214;-70
2023/04/22 02:19:43;;;;;;;14.17;9.17;;;;;;;9.84;72.40;100298.38;4929680;29;20230;-70
2023/04/22 02:22:09;;;;;;;14.60;10.40;;;;;;;9.81;72.38;100291.44;4932212;29;20237;-69
2023/04/22 02:24:36;;;;;;;10.70;9.60;;;;;;;9.81;72.82;100282.59;4929690;29;20218;-72
2023/04/22 02:27:02;;;;;;;11.80;9.77;;;;;;;9.79;72.31;100287.19;4931542;29;20216;-70
2023/04/22 02:29:30;;;;;;;10.67;9.57;;;;;;;9.75;72.68;100281.19;4929586;29;20209;-70
2023/04/22 02:31:58;;;;;;;10.73;9.63;;;;;;;9.73;72.68;100275.97;4929342;29;20355;-70
2023/04/22 02:34:25;;;;;;;9.60;8.70;;;;;;;9.70;73.17;100276.16;4932711;29;20217;-70
2023/04/22 02:36:51;;;;;;;10.90;9.60;;;;;;;9.68;72.94;100283.41;4929111;29;20224;-72
2023/04/22 02:39:18;;;;;;;10.50;9.50;;;;;;;9.66;72.67;100279.16;4930721;29;20306;-69
2023/04/22 02:41:44;;;;;;;11.83;9.00;;;;;;;9.61;73.05;100279.44;4937793;28;20232;-70
2023/04/22 02:44:11;;;;;;;13.80;9.83;;;;;;;9.60;72.68;100290.19;4924916;29;20209;-72
2023/04/22 02:46:37;;;;;;;12.13;9.70;;;;;;;9.57;72.78;100285.06;4926972;29;20219;-71
2023/04/22 02:49:05;;;;;;;10.47;9.40;;;;;;;9.54;73.00;100282.59;4926614;29;20209;-70
2023/04/22 02:51:33;;;;;;;12.03;9.83;;;;;;;9.52;72.93;100282.69;4928612;28;20225;-70
2023/04/22 02:54:00;;;;;;;11.57;9.03;;;;;;;9.49;72.74;100274.94;4930658;29;20218;-71
2023/04/22 02:56:26;;;;;;;9.77;8.77;;;;;;;9.42;72.51;100278.94;4930747;29;20233;-70
2023/04/22 02:58:52;;;;;;;10.33;9.30;;;;;;;9.33;72.04;100280.38;4932545;29;20255;-71
2023/04/22 03:01:19;;;;;;;10.83;9.73;;;;;;;9.25;72.13;100287.13;4925708;29;20241;-70
2023/04/22 03:03:45;;;;;;;13.27;10.03;;;;;;;9.16;72.74;100279.72;4926159;29;20293;-72
2023/04/22 03:06:13;;;;;;;13.23;9.83;;;;;;;9.10;72.58;100277.47;4927796;29;20217;-71
2023/04/22 03:08:40;;;;;;;11.00;9.37;;;;;;;9.06;73.34;100276.81;4929027;29;20241;-71
2023/04/22 03:11:06;;;;;;;11.37;9.50;;;;;;;9.02;73.60;100270.84;4934709;29;20217;-70
2023/04/22 03:13:32;;;;;;;11.20;10.03;;;;;;;9.00;74.08;100271.88;4929353;29;20264;-70
2023/04/22 03:15:59;;;;;;;11.87;9.83;;;;;;;8.98;74.52;100269.31;4927302;29;20228;-71
2023/04/22 03:18:25;;;;;;;10.73;9.63;;;;;;;8.97;74.45;100272.91;4931768;29;20232;-71
2023/04/22 03:20:52;;;;;;;12.43;9.93;;;;;;;8.96;74.54;100273.88;4930068;29;20634;-70
2023/04/22 03:23:19;;;;;;;11.33;10.07;;;;;;;8.96;74.64;100267.69;4932304;29;20734;-70
2023/04/22 03:25:46;;;;;;;12.00;9.97;;;;;;;8.96;75.08;100278.31;4936420;29;20209;-70
2023/04/22 03:28:12;;;;;;;14.77;10.23;;;;;;;8.94;74.83;100277.59;4930105;29;20366;-70
2023/04/22 03:30:39;;;;;;;12.43;10.43;;;;;;;8.92;75.15;100274.19;4929509;29;20576;-71
2023/04/22 03:33:05;;;;;;;12.10;10.07;;;;;;;8.86;75.14;100277.19;4928075;29;20233;-71
2023/04/22 03:35:32;;;;;;;12.73;10.87;;;;;;;8.79;75.31;100268.75;4928089;29;20585;-70
2023/04/22 03:37:58;;;;;;;11.47;10.37;;;;;;;8.72;75.86;100275.41;4927791;29;20206;-69
2023/04/22 03:40:26;;;;;;;12.03;9.63;;;;;;;8.67;75.84;100272.16;4930812;29;20230;-69
2023/04/22 03:42:52;;;;;;;12.03;10.17;;;;;;;8.61;75.31;100269.88;4924421;29;20707;-71
2023/04/22 03:45:19;;;;;;;12.20;9.53;;;;;;;8.58;76.21;100264.78;4927595;29;20212;-70
2023/04/22 03:47:45;;;;;;;13.30;10.73;;;;;;;8.53;76.50;100265.06;4930427;29;20205;-71
2023/04/22 03:50:12;;;;;;;12.50;10.73;;;;;;;8.47;76.24;100275.19;4925487;29;20209;-72
2023/04/22 03:52:38;;;;;;;11.57;10.43;;;;;;;8.42;75.93;100266.66;4929426;28;20232;-70
2023/04/22 03:55:05;;;;;;;11.63;10.43;;;;;;;8.35;76.76;100268.84;4926675;29;20542;-71
2023/04/22 03:57:33;;;;;;;13.07;11.13;;;;;;;8.32;76.72;100258.41;4925103;29;20675;-70
2023/04/22 04:00:00;;;;;;;11.30;10.20;;;;;;;8.28;77.45;100263.00;4928094;29;20241;-68
2023/04/22 04:02:26;;;;;;;12.00;10.87;;;;;;;8.26;78.04;100259.56;4927962;29;20226;-69
2023/04/22 04:04:52;;;;;;;13.20;10.77;;;;;;;8.26;78.49;100256.91;4929427;29;20206;-72
2023/04/22 04:07:19;;;;;;;12.80;11.40;;;;;;;8.25;79.40;100257.00;4929918;29;20217;-70
2023/04/22 04:09:45;;;;;;;12.40;11.10;;;;;;;8.27;79.71;100255.13;4929019;29;20588;-69
2023/04/22 04:12:12;;;;;;;13.33;11.07;;;;;;;8.26;79.89;100251.63;4930385;29;20628;-71
2023/04/22 04:14:40;;;;;;;14.20;11.77;;;;;;;8.29;80.41;100258.53;4928906;29;20221;-68
2023/04/22 04:17:09;;;;;;;13.33;11.63;;;;;;;8.31;80.29;100259.31;4930106;29;20220;-69
2023/04/22 04:19:36;;;;;;;16.17;11.87;;;;;;;8.32;80.68;100259.25;4926579;29;20668;-70
2023/04/22 04:22:02;;;;;;;14.93;10.87;;;;;;;8.33;81.33;100266.25;4929393;29;20240;-71
2023/04/22 04:24:29;;;;;;;13.47;11.03;;;;;;;8.36;80.79;100259.94;4928193;29;20317;-70
2023/04/22 04:26:56;;;;;;;13.83;11.83;;;;;;;8.39;81.21;100265.06;4937834;29;20553;-71
2023/04/22 04:29:23;;;;;;;13.13;11.57;;;;;;;8.40;81.28;100265.91;4929480;29;20209;-70
2023/04/22 04:31:51;;;;;;;12.10;10.80;;;;;;;8.41;80.43;100259.66;4927783;29;20737;-70
2023/04/22 04:34:17;;;;;;;12.40;10.97;;;;;;;8.42;81.31;100256.06;4927988;29;20221;-69
2023/04/22 04:36:45;;;;;;;12.23;10.90;;;;;;;8.44;80.93;100255.00;4928044;29;20205;-71
2023/04/22 04:39:11;;;;;;;15.73;11.87;;;;;;;8.45;81.16;100262.00;4929060;29;20224;-70
2023/04/22 04:41:40;;;;;;;13.57;12.13;;;;;;;8.48;81.99;100264.47;4930245;28;20252;-70
2023/04/22 04:44:06;;;;;;;16.90;11.77;;;;;;;8.49;81.29;100257.38;4931612;29;20296;-70
2023/04/22 04:46:33;;;;;;;13.73;11.83;;;;;;;8.50;81.03;100251.13;4928987;29;20224;-71
2023/04/22 04:49:01;;;;;;;15.17;12.33;;;;;;;8.50;81.64;100257.28;4926430;29;20210;-69
2023/04/22 04:51:27;;;;;;;14.73;12.43;;;;;;;8.51;80.89;100253.69;4928548;29;20222;-70
2023/04/22 04:53:54;;;;;;;13.63;11.90;;;;;;;8.54;81.26;100252.66;4925260;29;20220;-69
2023/04/22 04:56:20;;;;;;;13.10;11.50;;;;;;;8.55;81.67;100246.38;4929770;29;20213;-71
2023/04/22 04:58:46;;;;;;;15.70;12.37;;;;;;;8.55;81.10;100249.03;4928418;29;20233;-69
2023/04/22 05:01:13;;;;;;;16.07;11.97;;;;;;;8.54;82.10;100252.66;4931360;29;20881;-70
2023/04/22 05:03:39;;;;;;;13.67;11.90;;;;;;;8.54;82.35;100250.00;4933361;29;20205;-70
2023/04/22 05:06:08;;;;;;;17.80;12.53;;;;;;;8.57;82.78;100249.81;4932920;29;20284;-70
2023/04/22 05:08:34;;;;;;;14.87;12.93;;;;;;;8.60;82.75;100242.47;4929070;29;20205;-70
2023/04/22 05:11:01;;;;;;;13.80;12.40;;;;;;;8.65;83.02;100245.72;4928445;29;20214;-71
2023/04/22 05:13:27;;;;;;;12.87;11.30;;;;;;;8.73;82.71;100249.72;4933747;29;20209;-70
2023/04/22 05:15:54;;;;;;;13.87;11.67;;;;;;;8.79;83.24;100252.81;4930304;29;20237;-70
2023/04/22 05:18:20;;;;;;;27.43;12.33;;;;;;;8.88;83.60;100252.25;4931457;29;20210;-71
2023/04/22 05:20:46;;;;;;;12.87;11.57;;;;;;;8.97;83.75;100251.66;4932084;29;20230;-70
2023/04/22 05:23:14;;;;;;;13.47;11.97;;;;;;;9.08;83.53;100243.03;4928465;29;20745;-70
2023/04/22 05:25:41;;;;;;;15.03;12.10;;;;;;;9.19;83.95;100239.69;4932593;29;20618;-68
2023/04/22 05:28:07;;;;;;;13.57;12.13;;;;;;;9.28;84.10;100239.09;4928965;29;20202;-68
2023/04/22 05:30:34;;;;;;;12.80;11.50;;;;;;;9.40;84.08;100243.63;4932786;29;20667;-70
2023/04/22 05:33:00;;;;;;;11.97;10.77;;;;;;;9.52;85.26;100240.16;4931121;29;20605;-71
2023/04/22 05:35:27;;;;;;;12.57;10.27;;;;;;;9.66;85.03;100244.59;4929399;29;20209;-69
2023/04/22 05:37:53;;;;;;;9.90;8.33;;;;;;;9.84;85.11;100247.84;4927210;29;20221;-71
2023/04/22 05:40:21;;;;;;;8.63;7.67;;;;;;;10.04;84.84;100242.00;4934200;29;20209;-70
2023/04/22 05:42:47;;;;;;;10.00;7.63;;;;;;;10.25;84.01;100247.72;4924967;29;20226;-69
2023/04/22 05:45:14;;;;;;;12.20;8.07;;;;;;;10.45;83.20;100239.22;4928706;29;20673;-70
2023/04/22 05:47:41;;;;;;;8.43;7.27;;;;;;;10.63;81.72;100237.06;4930970;29;20205;-71
2023/04/22 05:50:08;;;;;;;10.03;6.73;;;;;;;10.78;80.77;100234.19;4926611;29;20230;-70
2023/04/22 05:52:34;;;;;;;9.73;6.43;;;;;;;10.94;79.79;100239.28;4930942;29;20231;-70
2023/04/22 05:55:01;;;;;;;7.07;6.30;;;;;;;11.09;79.13;100235.53;4931117;29;20241;-70
2023/04/22 05:57:29;;;;;;;6.97;6.10;;;;;;;11.26;78.44;100239.66;4932579;29;20259;-72
2023/04/22 05:59:55;;;;;;;9.30;5.80;;;;;;;11.44;77.62;100240.97;4929504;29;20220;-70
2023/04/22 06:02:22;;;;;;;9.50;5.73;;;;;;;11.63;77.47;100239.63;4929497;29;20248;-72
2023/04/22 06:04:48;;;;;;;8.50;5.57;;;;;;;11.81;76.10;100239.13;4931431;29;20209;-72
2023/04/22 06:07:15;;;;;;;10.33;5.43;;;;;;;12.01;75.35;100242.09;4930615;29;20694;-70
2023/04/22 06:09:41;;;;;;;6.60;4.60;;;;;;;12.18;74.29;100236.34;4930603;29;20205;-71
2023/04/22 06:12:07;;;;;;;7.23;4.90;;;;;;;12.34;73.59;100234.19;4926337;29;20677;-68
2023/04/22 06:14:35;;;;;;;8.17;4.60;;;;;;;12.50;72.13;100240.03;4931534;29;20214;-71
2023/04/22 06:17:02;;;;;;;5.80;4.50;;;;;;;12.68;70.86;100234.22;4931599;29;20205;-70
2023/04/22 06:19:28;;;;;;;6.00;4.10;;;;;;;12.88;69.56;100230.00;4930241;28;20216;-71
2023/04/22 06:21:55;;;;;;;7.10;4.33;;;;;;;13.09;69.20;100239.78;4931322;29;20249;-71
2023/04/22 06:24:22;;;;;;;6.70;4.03;;;;;;;13.30;68.06;100229.22;4930875;29;20206;-71
2023/04/22 06:26:49;;;;;;;5.53;4.00;;;;;;;13.52;66.40;100242.56;4930866;29;20209;-71
2023/04/22 06:29:15;;;;;;;9.57;4.80;;;;;;;13.72;65.19;100238.22;4929140;29;20671;-70
2023/04/22 06:31:43;;;;;;;6.47;4.00;;;;;;;13.94;64.13;100236.44;4926335;29;20261;-72
2023/04/22 06:34:09;;;;;;;10.70;4.33;;;;;;;14.12;62.57;100234.91;4927858;29;20213;-69
2023/04/22 06:36:37;;;;;;;3.97;3.30;;;;;;;14.31;62.20;100237.72;4931318;29;20205;-71
2023/04/22 06:39:04;;;;;;;6.23;4.70;;;;;;;14.49;61.98;100230.81;4932173;29;20297;-71
2023/04/22 06:41:30;;;;;;;6.27;3.53;;;;;;;14.67;61.02;100230.19;4932147;29;20768;-71
2023/04/22 06:43:57;;;;;;;6.37;4.33;;;;;;;14.85;60.19;100228.59;4933104;29;20225;-70
2023/04/22 06:46:23;;;;;;;7.17;4.00;;;;;;;15.04;60.10;100231.34;4931105;29;20600;-71
2023/04/22 06:48:51;;;;;;;4.70;3.73;;;;;;;15.22;58.65;100224.34;4928783;29;20240;-71
2023/04/22 06:51:17;;;;;;;5.00;3.57;;;;;;;15.37;57.95;100222.13;4929874;29;20229;-71
2023/04/22 06:53:44;;;;;;;5.60;3.43;;;;;;;15.47;57.71;100214.06;4929639;29;20212;-71
2023/04/22 06:56:11;;;;;;;5.77;3.83;;;;;;;15.57;56.98;100215.00;4927593;29;20409;-70
2023/04/22 06:58:37;;;;;;;3.63;3.33;;;;;;;15.66;55.98;100210.59;4930896;29;20215;-71
2023/04/22 07:01:04;;;;;;;4.80;3.40;;;;;;;15.76;56.14;100214.16;4924907;29;20230;-71
2023/04/22 07:03:30;;;;;;;6.23;3.83;;;;;;;15.86;55.36;100210.47;4922765;29;20219;-71
2023/04/22 07:05:58;;;;;;;4.00;3.60;;;;;;;16.00;55.38;100205.66;4929550;29;20294;-71
2023/04/22 07:08:25;;;;;;;4.53;3.30;;;;;;;16.16;55.16;100205.91;4929466;29;20209;-70
2023/04/22 07:10:51;;;;;;;4.83;4.13;;;;;;;16.30;54.59;100213.56;4930727;29;20595;-71
2023/04/22 07:13:18;;;;;;;4.53;3.50;;;;;;;16.44;53.99;100225.69;4926205;29;20244;-72
2023/04/22 07:15:45;;;;;;;4.63;3.70;;;;;;;16.56;53.66;100214.59;4926333;29;20748;-71
2023/04/22 07:18:11;;;;;;;6.03;3.60;;;;;;;16.74;53.55;100216.56;4922694;29;20347;-69
2023/04/22 07:20:38;;;;;;;6.57;3.80;;;;;;;16.89;52.77;100210.56;4926731;29;20407;-72
2023/04/22 07:23:06;;;;;;;5.13;3.50;;;;;;;17.04;52.80;100208.22;4924363;29;20236;-72
2023/04/22 07:25:32;;;;;;;5.77;3.37;;;;;;;17.19;52.92;100205.91;4926066;29;20305;-73
2023/04/22 07:27:59;;;;;;;5.00;3.50;;;;;;;17.34;52.31;100202.53;4929255;29;20211;-71
2023/04/22 07:30:25;;;;;;;5.80;3.50;;;;;;;17.48;51.78;100197.63;4922684;29;20828;-70
2023/04/22 07:32:52;;;;;;;3.87;3.30;;;;;;;17.57;50.67;100204.78;4922143;29;20234;-72
2023/04/22 07:35:18;;;;;;;5.87;3.80;;;;;;;17.68;51.42;100210.84;4926492;28;20215;-69
2023/04/22 07:37:44;;;;;;;5.87;3.40;;;;;;;17.80;50.72;100192.59;4926318;29;20231;-71
2023/04/22 07:40:12;;;;;;;5.70;3.53;;;;;;;17.93;50.17;100198.41;4928768;29;20215;-72
2023/04/22 07:42:39;;;;;;;4.80;3.83;;;;;;;18.05;50.62;100196.34;4921896;29;20232;-73
2023/04/22 07:45:07;;;;;;;4.17;3.77;;;;;;;18.22;50.47;100194.63;4925679;29;20213;-71
2023/04/22 07:47:33;;;;;;;3.77;3.47;;;;;;;18.31;49.75;100186.44;4929008;28;20640;-72
2023/04/22 07:50:00;;;;;;;5.27;3.63;;;;;;;18.39;49.18;100191.03;4927681;29;20215;-71
2023/04/22 07:52:26;;;;;;;5.40;3.40;;;;;;;18.45;48.78;100190.38;4923928;29;20224;-72
2023/04/22 07:54:53;;;;;;;4.47;3.13;;;;;;;18.51;48.63;100187.06;4927002;29;20214;-71
2023/04/22 07:57:21;;;;;;;4.90;3.17;;;;;;;18.63;49.37;100190.38;4928966;29;20249;-70
2023/04/22 07:59:48;;;;;;;5.03;3.20;;;;;;;18.75;49.21;100189.09;4927031;29;20376;-69
2023/04/22 08:02:14;;;;;;;5.10;3.73;;;;;;;18.90;48.78;100194.72;4925341;29;20463;-71
2023/04/22 08:04:40;;;;;;;6.07;3.80;;;;;;;19.04;48.81;100192.25;4929606;29;20211;-72
2023/04/22 08:07:07;;;;;;;5.87;3.30;;;;;;;19.20;47.65;100185.22;4929387;29;20237;-72
2023/04/22 08:09:33;;;;;;;4.13;3.37;;;;;;;19.30;47.76;100183.25;4928147;29;20219;-72
2023/04/22 08:12:01;;;;;;;5.10;3.13;;;;;;;19.41;47.17;100180.22;4929560;28;20245;-70
2023/04/22 08:14:29;;;;;;;6.00;3.20;;;;;;;19.52;46.34;100179.97;4929669;29;20222;-70
2023/04/22 08:16:55;;;;;;;5.40;3.00;;;;;;;19.60;46.44;100171.00;4929767;29;20211;-71
2023/04/22 08:19:22;;;;;;;3.73;2.93;;;;;;;19.72;46.06;100175.91;4931905;29;20212;-70
2023/04/22 08:21:48;;;;;;;4.33;2.90;;;;;;;19.81;46.18;100179.47;4928594;29;20243;-70
2023/04/22 08:24:15;;;;;;;5.23;3.00;;;;;;;19.92;45.50;100171.03;4928443;29;20209;-69
2023/04/22 08:26:42;;;;;;;4.23;3.13;;;;;;;19.99;45.42;100177.47;4928344;29;20221;-71
2023/04/22 08:29:08;;;;;;;4.72;2.75;;;;;;;20.14;45.23;100168.66;4927487;29;20674;-72
2023/04/22 08:31:36;;;;;;;4.55;3.38;;;;;;;20.26;44.65;100167.28;4933277;29;20710;-70
2023/04/22 08:34:03;;;;;;;3.28;2.95;;;;;;;20.38;44.65;100165.97;4925437;29;20215;-70
2023/04/22 08:36:30;;;;;;;3.35;3.05;;;;;;;20.48;44.16;100172.03;4929435;29;20209;-70
2023/04/22 08:38:57;;;;;;;2.83;2.53;;;;;;;20.56;44.42;100163.06;4930370;28;20205;-70
2023/04/22 08:41:24;;;;;;;3.20;2.90;;;;;;;20.71;44.25;100161.31;4927836;29;20849;-70
2023/04/22 08:43:52;;;;;;;5.75;2.55;;;;;;;20.87;43.43;100166.66;4930805;29;20214;-70
2023/04/22 08:46:19;;;;;;;4.57;3.00;;;;;;;20.99;42.23;100164.41;4929228;29;20702;-71
2023/04/22 08:48:48;;;;;;;4.07;3.15;;;;;;;21.07;42.82;100158.97;4925327;29;20763;-72
2023/04/22 08:51:16;;;;;;;6.47;2.70;;;;;;;21.11;42.34;100161.16;4929860;28;20204;-72
2023/04/22 08:53:43;;;;;;;5.88;3.13;;;;;;;21.17;42.28;100167.69;4928031;29;20687;-70
2023/04/22 08:56:11;;;;;;;6.55;3.35;;;;;;;21.23;43.08;100168.91;4930805;29;20216;-71
2023/04/22 08:58:38;;;;;;;2.72;2.47;;;;;;;21.29;42.28;100160.91;4927861;29;20212;-71
2023/04/22 09:01:05;;;;;;;4.78;3.10;;;;;;;21.36;42.30;100159.16;4929617;29;20216;-71
2023/04/22 09:03:32;;;;;;;3.13;2.83;;;;;;;21.43;42.51;100149.31;4928191;29;20252;-69
2023/04/22 09:06:03;;;;;;;3.28;2.90;;;;;;;21.52;42.13;100149.25;4931651;29;20209;-72
2023/04/22 09:08:31;;;;;;;3.90;2.80;;;;;;;21.59;41.27;100150.22;4930396;28;20320;-70
2023/04/22 09:10:57;;;;;;;4.47;2.70;;;;;;;21.62;41.73;100150.72;4929731;29;20213;-71
2023/04/22 09:13:25;;;;;;;2.83;2.60;;;;;;;21.67;41.13;100142.03;4925086;29;20197;-70
2023/04/22 09:15:52;;;;;;;4.00;2.65;;;;;;;21.68;41.74;100139.13;4928871;29;20217;-70
2023/04/22 09:18:19;;;;;;;4.63;3.00;;;;;;;21.76;41.62;100138.22;4926852;29;20213;-69
2023/04/22 09:20:47;;;;;;;5.10;3.17;;;;;;;21.83;41.82;100141.91;4927547;29;20205;-69
2023/04/22 09:23:15;;;;;;;4.47;2.40;;;;;;;21.95;40.85;100135.03;4931007;29;20233;-70
2023/04/22 09:25:41;;;;;;;3.78;2.80;;;;;;;22.03;40.80;100135.00;4928466;29;20233;-68
2023/04/22 09:28:12;;;;;;;6.32;3.13;;;;;;;22.06;40.32;100136.47;4927339;29;20248;-69
2023/04/22 09:30:38;;;;;;;5.75;3.08;;;;;;;22.09;40.51;100130.69;4927206;29;20701;-73
2023/04/22 09:33:07;;;;;;;3.83;3.05;;;;;;;22.11;40.58;100123.22;4925698;29;20232;-69
2023/04/22 09:35:36;;;;;;;5.50;2.80;;;;;;;22.11;39.88;100121.34;4925344;29;20206;-69
2023/04/22 09:38:05;;;;;;;3.97;2.58;;;;;;;22.10;40.55;100113.38;4931132;29;20240;-70
2023/04/22 09:40:33;;;;;;;4.63;2.67;;;;;;;22.16;41.01;100120.78;4928112;29;20205;-70
2023/04/22 09:43:01;;;;;;;3.17;2.50;;;;;;;22.23;40.79;100110.88;4928041;29;20245;-70
2023/04/22 09:45:30;;;;;;;3.47;2.72;;;;;;;22.28;40.81;100110.31;4926069;29;20213;-69
2023/04/22 09:47:59;;;;;;;3.35;2.53;;;;;;;22.33;40.74;100110.63;4930278;29;20220;-70
2023/04/22 09:50:27;;;;;;;3.55;2.70;;;;;;;22.38;40.14;100119.06;4929193;29;20687;-68
2023/04/22 09:52:55;;;;;;;2.72;2.20;;;;;;;22.35;39.34;100105.84;4923960;29;20608;-69
2023/04/22 09:55:22;;;;;;;3.70;2.58;;;;;;;22.34;39.25;100102.28;4927248;29;20253;-68
2023/04/22 09:57:53;;;;;;;2.72;2.10;;;;;;;22.34;39.54;100105.00;4926727;29;20214;-69
2023/04/22 10:00:20;;;;;;;2.45;2.03;;;;;;;22.41;39.38;100096.94;4924731;29;20237;-70
2023/04/22 10:02:46;;;;;;;2.63;2.15;;;;;;;22.44;38.88;100093.88;4927641;29;20599;-70
2023/04/22 10:05:13;;;;;;;2.55;2.03;;;;;;;22.48;38.46;100089.75;4925447;29;20470;-71
2023/04/22 10:07:40;;;;;;;1.92;1.70;;;;;;;22.53;38.11;100095.47;4929595;29;20205;-70
2023/04/22 10:10:09;;;;;;;2.40;1.92;;;;;;;22.56;38.28;100096.97;4931209;29;20216;-71
2023/04/22 10:12:36;;;;;;;2.15;1.73;;;;;;;22.63;37.73;100090.59;4926580;29;20343;-70
2023/04/22 10:15:05;;;;;;;3.65;2.22;;;;;;;22.70;37.79;100088.81;4929311;29;20227;-68
2023/04/22 10:17:33;;;;;;;4.05;2.13;;;;;;;22.74;37.82;100081.97;4933477;29;20563;-70
2023/04/22 10:20:04;;;;;;;3.33;2.00;;;;;;;22.81;38.06;100085.63;4928012;29;20232;-70
2023/04/22 10:22:32;;;;;;;2.85;2.00;;;;;;;22.88;38.26;100082.16;4926340;29;20967;-70
2023/04/22 10:24:59;;;;;;;4.00;2.35;;;;;;;22.97;38.06;100081.00;4933576;29;20645;-70
2023/04/22 10:27:25;;;;;;;2.72;2.30;;;;;;;23.05;37.85;100083.63;4928725;29;20206;-72
2023/04/22 10:29:51;;;;;;;2.50;2.30;;;;;;;23.14;37.97;100075.16;4931480;29;20601;-70
2023/04/22 10:32:27;;;;;;;2.60;2.13;;;;;;;23.25;38.07;100075.69;4927521;29;20225;-71
2023/04/22 10:35:12;;;;;;;2.67;2.30;;;;;;;23.30;38.18;100076.78;4932505;29;20351;-70
2023/04/22 10:37:44;;;;;;;3.13;2.40;;;;;;;23.36;37.90;100069.75;4927880;29;20253;-71
2023/04/22 10:40:15;;;;;;;2.33;1.95;;;;;;;23.40;37.75;100069.16;4925735;29;20217;-69
2023/04/22 10:42:46;;;;;;;3.75;2.25;;;;;;;23.46;37.88;100067.56;4928716;29;20320;-68
2023/04/22 10:45:14;;;;;;;3.35;2.38;;;;;;;23.48;37.78;100069.00;4928888;29;20695;-69
2023/04/22 10:47:43;;;;;;;1.95;1.85;;;;;;;23.57;38.76;100066.22;4926527;29;20223;-70
2023/04/22 10:50:16;;;;;;;17.77;4.57;;;;;;;23.67;37.91;100070.28;4932099;29;20229;-68
2023/04/22 10:52:47;;;;;;;6.72;2.40;;;;;;;23.73;37.42;100066.78;4930818;29;20230;-69
2023/04/22 10:55:13;;;;;;;2.95;2.50;;;;;;;23.77;36.85;100061.78;4926425;29;20274;-70
2023/04/22 10:57:42;;;;;;;2.25;2.03;;;;;;;23.84;38.35;100068.09;4930042;29;20221;-71
2023/04/22 11:00:32;;;;;;;3.78;2.67;;;;;;;23.91;38.32;100063.56;4927929;29;20221;-70
2023/04/22 11:03:25;;;;;;;4.63;2.42;;;;;;;23.94;37.99;100060.47;4929726;29;20320;-70
2023/04/22 11:06:14;;;;;;;2.28;2.08;;;;;;;24.00;37.64;100056.97;4928674;29;20596;-70
2023/04/22 11:08:44;;;;;;;2.45;2.25;;;;;;;24.01;37.84;100052.31;4931017;29;20771;-71
2023/04/22 11:11:12;;;;;;;5.60;2.10;;;;;;;24.00;36.75;100051.53;4932340;29;20220;-70
2023/04/22 11:13:42;;;;;;;2.65;2.17;;;;;;;23.96;36.58;100042.06;4930299;29;20723;-68
2023/04/22 11:16:09;;;;;;;2.38;2.17;;;;;;;23.94;36.67;100048.75;4927496;29;20236;-69
2023/04/22 11:18:38;;;;;;;2.58;2.08;;;;;;;23.99;36.73;100051.72;4930074;29;20712;-70
2023/04/22 11:21:07;;;;;;;2.30;2.10;;;;;;;24.00;36.68;100040.63;4929602;29;20209;-68
2023/04/22 11:23:34;;;;;;;4.20;2.42;;;;;;;24.02;36.98;100040.41;4926912;29;20244;-70